createdAt,value
2019-05-01T00:01:00.316Z,53.93
2019-05-01T00:03:53.472Z,55.23
2019-05-01T00:06:30.174Z,54.37
2019-05-01T00:09:02.344Z,57.13
2019-05-01T00:11:35.055Z,53.67
2019-05-01T00:14:10.191Z,54.93
2019-05-01T00:16:43.856Z,55.27
2019-05-01T00:19:16.850Z,53.53
2019-05-01T00:21:49.331Z,55.43
2019-05-01T00:24:21.681Z,57.73
2019-05-01T00:26:52.772Z,55.37
2019-05-01T00:29:25.146Z,56.17
2019-05-01T00:31:57.005Z,53.83
2019-05-01T00:34:32.595Z,57.13
2019-05-01T00:37:04.869Z,54.10
2019-05-01T00:39:37.056Z,61.57
2019-05-01T00:42:17.587Z,55.30
2019-05-01T00:44:51.771Z,56.60
2019-05-01T00:47:23.082Z,54.37
2019-05-01T00:49:54.528Z,56.07
2019-05-01T00:52:25.091Z,56.63
2019-05-01T00:55:15.072Z,57.60
2019-05-01T00:57:57.203Z,57.03
2019-05-01T01:00:47.291Z,54.73
2019-05-01T01:03:19.260Z,58.07
2019-05-01T01:05:50.656Z,57.30
2019-05-01T01:08:22.001Z,56.33
2019-05-01T01:10:55.297Z,59.83
2019-05-01T01:13:26.518Z,57.40
2019-05-01T01:15:59.560Z,60.10
2019-05-01T01:18:31.957Z,58.60
2019-05-01T01:21:04.007Z,57.63
2019-05-01T01:23:39.451Z,57.90
2019-05-01T01:26:11.180Z,59.53
2019-05-01T01:28:44.102Z,58.03
2019-05-01T01:31:16.551Z,58.40
2019-05-01T01:33:49.582Z,59.53
2019-05-01T01:36:34.038Z,60.53
2019-05-01T01:39:10.501Z,56.83
2019-05-01T01:41:44.747Z,56.97
2019-05-01T01:44:27.531Z,54.57
2019-05-01T01:47:02.558Z,56.50
2019-05-01T01:49:49.446Z,55.60
2019-05-01T01:52:23.745Z,54.00
2019-05-01T01:54:56.217Z,55.33
2019-05-01T01:57:29.111Z,55.13
2019-05-01T02:00:05.951Z,56.70
2019-05-01T02:02:53.558Z,53.33
2019-05-01T02:05:34.418Z,55.47
2019-05-01T02:08:09.283Z,54.30
2019-05-01T02:10:43.851Z,51.83
2019-05-01T02:13:15.962Z,53.57
2019-05-01T02:15:46.863Z,53.77
2019-05-01T02:18:26.477Z,52.40
2019-05-01T02:20:57.927Z,53.60
2019-05-01T02:23:30.296Z,50.50
2019-05-01T02:26:02.716Z,52.37
2019-05-01T02:29:08.411Z,52.00
2019-05-01T02:31:45.199Z,51.53
2019-05-01T02:34:18.658Z,50.87
2019-05-01T02:36:53.053Z,53.03
2019-05-01T02:39:25.273Z,53.43
2019-05-01T02:41:59.810Z,52.33
2019-05-01T02:44:43.589Z,52.93
2019-05-01T02:47:19.647Z,54.50
2019-05-01T02:49:54.562Z,51.47
2019-05-01T02:52:30.223Z,49.43
2019-05-01T02:55:05.706Z,48.73
2019-05-01T02:57:39.901Z,49.53
2019-05-01T03:00:12.832Z,50.70
2019-05-01T03:02:44.009Z,49.60
2019-05-01T03:05:16.977Z,49.37
2019-05-01T03:07:48.279Z,52.33
2019-05-01T03:10:20.330Z,48.10
2019-05-01T03:12:52.890Z,49.00
2019-05-01T03:15:27.779Z,50.03
2019-05-01T03:18:22.327Z,46.40
2019-05-01T03:21:12.659Z,46.87
2019-05-01T03:23:49.937Z,47.47
2019-05-01T03:26:22.414Z,43.70
2019-05-01T03:28:54.980Z,45.23
2019-05-01T03:31:26.117Z,44.57
2019-05-01T03:33:58.344Z,42.43
2019-05-01T03:36:30.246Z,43.57
2019-05-01T03:39:03.669Z,43.97
2019-05-01T03:41:35.168Z,45.37
2019-05-01T03:44:06.414Z,43.60
2019-05-01T03:46:38.437Z,43.50
2019-05-01T03:49:09.395Z,43.97
2019-05-01T03:51:43.569Z,44.23
2019-05-01T03:54:15.319Z,40.77
2019-05-01T03:56:48.217Z,44.03
2019-05-01T03:59:19.871Z,44.87
2019-05-01T04:02:05.034Z,43.43
2019-05-01T04:04:35.998Z,41.73
2019-05-01T04:07:08.569Z,43.77
2019-05-01T04:09:43.509Z,45.80
2019-05-01T04:12:14.237Z,43.20
2019-05-01T04:14:46.947Z,45.07
2019-05-01T04:17:40.799Z,42.03
2019-05-01T04:20:14.556Z,44.63
2019-05-01T04:22:47.259Z,43.17
2019-05-01T04:25:21.820Z,45.60
2019-05-01T04:27:53.587Z,44.07
2019-05-01T04:30:34.402Z,42.47
2019-05-01T04:33:08.966Z,41.30
2019-05-01T04:36:05.033Z,44.80
2019-05-01T04:38:35.809Z,42.33
2019-05-01T04:41:07.062Z,42.37
2019-05-01T04:43:38.014Z,41.87
2019-05-01T04:46:12.547Z,41.33
2019-05-01T04:48:44.889Z,38.90
2019-05-01T04:51:16.723Z,39.30
2019-05-01T04:53:48.311Z,39.20
2019-05-01T04:56:19.603Z,39.83
2019-05-01T04:58:51.702Z,42.00
2019-05-01T05:01:22.908Z,40.43
2019-05-01T05:04:01.284Z,41.17
2019-05-01T05:06:32.331Z,39.40
2019-05-01T05:09:05.736Z,40.67
2019-05-01T05:11:49.368Z,40.07
2019-05-01T05:14:24.452Z,39.67
2019-05-01T05:17:05.997Z,41.17
2019-05-01T05:19:37.127Z,39.40
2019-05-01T05:22:08.021Z,41.43
2019-05-01T05:24:39.229Z,40.83
2019-05-01T05:27:10.838Z,38.30
2019-05-01T05:29:46.644Z,38.77
2019-05-01T05:32:22.638Z,39.33
2019-05-01T05:34:56.891Z,39.07
2019-05-01T05:37:35.666Z,36.40
2019-05-01T05:40:08.433Z,34.87
2019-05-01T05:42:39.373Z,35.37
2019-05-01T05:45:11.701Z,36.93
2019-05-01T05:47:43.592Z,37.23
2019-05-01T05:50:18.144Z,34.00
2019-05-01T05:52:59.047Z,36.27
2019-05-01T05:55:39.530Z,36.57
2019-05-01T05:58:33.627Z,38.00
2019-05-01T06:01:21.676Z,35.63
2019-05-01T06:04:27.353Z,35.43
2019-05-01T06:07:15.561Z,35.80
2019-05-01T06:10:05.771Z,36.50
2019-05-01T06:12:46.815Z,38.03
2019-05-01T06:15:24.432Z,36.93
2019-05-01T06:18:20.401Z,37.17
2019-05-01T06:21:08.566Z,38.93
2019-05-01T06:24:06.545Z,37.00
2019-05-01T06:26:39.409Z,37.80
2019-05-01T06:29:09.659Z,37.10
2019-05-01T06:31:40.587Z,37.50
2019-05-01T06:34:11.465Z,38.80
2019-05-01T06:36:44.187Z,38.37
2019-05-01T06:39:16.514Z,36.73
2019-05-01T06:41:48.590Z,37.37
2019-05-01T06:44:44.272Z,38.10
2019-05-01T06:47:26.723Z,34.17
2019-05-01T06:50:21.644Z,37.53
2019-05-01T06:52:54.053Z,36.53
2019-05-01T06:55:29.027Z,36.30
2019-05-01T06:58:01.413Z,34.10
2019-05-01T07:00:32.652Z,35.23
2019-05-01T07:03:06.041Z,35.07
2019-05-01T07:05:44.457Z,35.67
2019-05-01T07:08:23.966Z,32.47
2019-05-01T07:10:45.904Z,34.73
2019-05-01T07:13:17.409Z,33.70
2019-05-01T07:15:50.119Z,35.37
2019-05-01T07:18:24.113Z,33.10
2019-05-01T07:20:54.484Z,33.63
2019-05-01T07:23:26.958Z,32.63
2019-05-01T07:25:58.883Z,33.57
2019-05-01T07:28:36.203Z,35.70
2019-05-01T07:31:09.294Z,33.83
2019-05-01T07:33:42.527Z,33.50
2019-05-01T07:36:16.269Z,33.10
2019-05-01T07:38:50.883Z,33.50
2019-05-01T07:41:22.068Z,34.20
2019-05-01T07:44:33.827Z,33.27
2019-05-01T07:47:26.031Z,34.73
2019-05-01T07:50:03.930Z,34.13
2019-05-01T07:52:36.962Z,32.20
2019-05-01T07:55:18.410Z,34.63
2019-05-01T07:57:46.360Z,31.23
2019-05-01T08:00:29.872Z,31.80
2019-05-01T08:03:02.629Z,32.70
2019-05-01T08:05:33.932Z,33.10
2019-05-01T08:08:07.970Z,33.37
2019-05-01T08:10:42.964Z,33.47
2019-05-01T08:13:30.600Z,33.47
2019-05-01T08:16:02.121Z,31.97
2019-05-01T08:18:49.345Z,29.33
2019-05-01T08:22:01.594Z,29.47
2019-05-01T08:24:33.633Z,26.03
2019-05-01T08:27:07.658Z,29.57
2019-05-01T08:30:12.710Z,28.30
2019-05-01T08:32:46.823Z,26.23
2019-05-01T08:35:20.479Z,26.77
2019-05-01T08:37:53.809Z,27.00
2019-05-01T08:40:27.724Z,29.90
2019-05-01T08:43:01.069Z,27.80
2019-05-01T08:45:51.156Z,27.10
2019-05-01T08:48:35.888Z,25.60
2019-05-01T08:51:07.954Z,27.47
2019-05-01T08:53:39.750Z,26.67
2019-05-01T08:56:10.630Z,31.13
2019-05-01T08:58:44.744Z,28.70
2019-05-01T09:01:17.578Z,29.93
2019-05-01T09:03:55.725Z,28.53
2019-05-01T09:06:35.055Z,31.53
2019-05-01T09:09:09.991Z,30.50
2019-05-01T09:11:42.638Z,32.87
2019-05-01T09:14:14.305Z,31.77
2019-05-01T09:16:46.380Z,33.40
2019-05-01T09:19:17.182Z,34.30
2019-05-01T09:21:49.582Z,33.87
2019-05-01T09:24:23.168Z,33.37
2019-05-01T09:27:12.000Z,36.10
2019-05-01T09:29:52.856Z,34.87
2019-05-01T09:32:24.624Z,34.30
2019-05-01T09:34:58.195Z,35.70
2019-05-01T09:37:30.607Z,38.57
2019-05-01T09:40:04.242Z,37.70
2019-05-01T09:42:36.765Z,38.47
2019-05-01T09:45:09.979Z,41.03
2019-05-01T09:47:41.745Z,42.47
2019-05-01T09:50:18.203Z,44.67
2019-05-01T09:53:22.545Z,43.77
2019-05-01T09:56:03.256Z,42.27
2019-05-01T09:58:34.370Z,43.73
2019-05-01T10:01:05.753Z,43.23
2019-05-01T10:03:37.391Z,46.77
2019-05-01T10:06:12.771Z,42.03
2019-05-01T10:08:43.724Z,43.40
2019-05-01T10:11:20.079Z,42.83
2019-05-01T10:13:53.664Z,42.43
2019-05-01T10:16:27.068Z,40.97
2019-05-01T10:19:01.188Z,40.30
2019-05-01T10:21:35.141Z,39.43
2019-05-01T10:24:10.698Z,40.40
2019-05-01T10:26:46.985Z,37.40
2019-05-01T10:29:39.146Z,39.03
2019-05-01T10:32:21.564Z,38.37
2019-05-01T10:35:19.083Z,32.10
2019-05-01T10:37:56.275Z,36.70
2019-05-01T10:40:34.353Z,37.30
2019-05-01T10:43:06.529Z,32.00
2019-05-01T10:45:54.260Z,34.50
2019-05-01T10:48:30.329Z,37.97
2019-05-01T10:51:21.425Z,38.30
2019-05-01T10:54:39.530Z,36.37
2019-05-01T10:57:19.171Z,39.20
2019-05-01T10:59:55.374Z,36.27
2019-05-01T11:02:35.051Z,36.93
2019-05-01T11:05:55.255Z,38.70
2019-05-01T11:08:26.384Z,38.30
2019-05-01T11:11:02.856Z,39.63
2019-05-01T11:13:43.796Z,38.73
2019-05-01T11:16:37.990Z,36.07
2019-05-01T11:19:16.551Z,39.97
2019-05-01T11:22:09.469Z,38.17
2019-05-01T11:24:41.679Z,35.07
2019-05-01T11:30:55.100Z,36.57
2019-05-01T11:34:04.646Z,39.33
2019-05-01T11:36:44.633Z,39.97
2019-05-01T11:39:31.158Z,37.00
2019-05-01T11:42:20.891Z,43.50
2019-05-01T11:45:52.689Z,40.23
2019-05-01T11:49:35.374Z,40.37
2019-05-01T11:52:31.096Z,44.07
2019-05-01T11:55:09.211Z,44.67
2019-05-01T11:58:03.570Z,38.00
2019-05-01T12:00:40.696Z,40.67
2019-05-01T12:03:26.740Z,37.93
2019-05-01T12:06:22.666Z,42.03
2019-05-01T12:09:32.700Z,38.93
2019-05-01T12:12:37.365Z,45.77
2019-05-01T12:15:51.280Z,41.80
2019-05-01T12:19:00.742Z,44.90
2019-05-01T12:21:42.424Z,44.00
2019-05-01T12:24:14.795Z,43.80
2019-05-01T12:26:52.877Z,43.43
2019-05-01T12:29:26.219Z,43.00
2019-05-01T12:32:12.095Z,39.63
2019-05-01T12:34:52.087Z,43.70
2019-05-01T12:37:45.000Z,44.37
2019-05-01T12:40:38.854Z,43.07
2019-05-01T12:43:21.151Z,43.50
2019-05-01T12:46:33.222Z,40.10
2019-05-01T12:49:20.213Z,38.90
2019-05-01T12:52:47.209Z,41.13
2019-05-01T12:55:35.121Z,38.70
2019-05-01T12:58:30.425Z,39.97
2019-05-01T13:01:10.316Z,38.90
2019-05-01T13:03:52.659Z,40.50
2019-05-01T13:06:48.629Z,41.97
2019-05-01T13:09:30.689Z,38.53
2019-05-01T13:12:34.014Z,33.53
2019-05-01T13:15:15.226Z,33.07
2019-05-01T13:17:57.020Z,41.70
2019-05-01T13:21:02.523Z,38.93
2019-05-01T13:24:02.539Z,32.67
2019-05-01T13:27:09.386Z,36.87
2019-05-01T13:30:00.416Z,36.10
2019-05-01T13:32:52.676Z,35.37
2019-05-01T13:35:37.841Z,38.27
2019-05-01T13:38:18.739Z,38.83
2019-05-01T13:40:58.824Z,38.83
2019-05-01T13:43:43.514Z,38.57
2019-05-01T13:46:32.839Z,35.63
2019-05-01T13:49:12.063Z,36.80
2019-05-01T13:51:51.640Z,36.57
2019-05-01T13:54:31.695Z,37.90
2019-05-01T13:57:04.671Z,36.97
2019-05-01T13:59:40.164Z,39.37
2019-05-01T14:02:13.984Z,37.37
2019-05-01T14:04:57.301Z,35.63
2019-05-01T14:07:36.979Z,32.57
2019-05-01T14:10:11.754Z,34.20
2019-05-01T14:12:45.411Z,32.93
2019-05-01T14:15:28.392Z,30.57
2019-05-01T14:18:09.670Z,32.57
2019-05-01T14:21:13.371Z,32.93
2019-05-01T14:24:13.765Z,33.47
2019-05-01T14:26:55.040Z,36.70
2019-05-01T14:30:09.498Z,31.90
2019-05-01T14:32:43.687Z,31.30
2019-05-01T14:35:32.675Z,33.03
2019-05-01T14:38:08.454Z,31.93
2019-05-01T14:40:42.204Z,32.40
2019-05-01T14:43:21.077Z,30.93
2019-05-01T14:45:55.984Z,29.73
2019-05-01T14:48:28.390Z,29.90
2019-05-01T14:51:03.615Z,29.27
2019-05-01T14:53:41.430Z,30.47
2019-05-01T14:56:16.646Z,29.20
2019-05-01T14:58:50.501Z,28.43
2019-05-01T15:01:26.865Z,27.63
2019-05-01T15:06:55.553Z,30.50
2019-05-01T15:09:46.185Z,27.90
2019-05-01T15:12:27.947Z,28.07
2019-05-01T15:15:12.695Z,26.73
2019-05-01T15:18:33.402Z,26.17
2019-05-01T15:21:06.840Z,27.97
2019-05-01T15:23:53.129Z,26.47
2019-05-01T15:26:40.537Z,26.90
2019-05-01T15:29:22.344Z,27.77
2019-05-01T15:34:50.966Z,27.00
2019-05-01T15:37:26.025Z,26.52
2019-05-01T15:40:07.731Z,26.03
2019-05-01T15:43:00.588Z,28.87
2019-05-01T15:45:35.235Z,25.62
2019-05-01T15:48:07.857Z,26.65
2019-05-01T15:50:43.254Z,26.65
2019-05-01T15:53:29.447Z,26.73
2019-05-01T15:57:17.671Z,25.10
2019-05-01T15:59:50.944Z,25.23
2019-05-01T16:02:23.698Z,27.37
2019-05-01T16:05:09.561Z,26.95
2019-05-01T16:07:48.949Z,27.17
2019-05-01T16:10:30.970Z,27.77
2019-05-01T16:13:05.663Z,27.57
2019-05-01T16:15:40.502Z,26.20
2019-05-01T16:18:14.936Z,27.83
2019-05-01T16:20:48.596Z,27.53
2019-05-01T16:23:21.764Z,26.30
2019-05-01T16:25:55.844Z,27.80
2019-05-01T16:28:27.808Z,29.63
2019-05-01T16:31:32.470Z,29.70
2019-05-01T16:34:11.555Z,26.53
2019-05-01T16:36:44.475Z,29.83
2019-05-01T16:39:51.116Z,28.60
2019-05-01T16:42:35.600Z,28.80
2019-05-01T16:45:17.009Z,30.40
2019-05-01T16:47:54.525Z,29.97
2019-05-01T16:50:38.681Z,28.63
2019-05-01T16:53:34.119Z,27.70
2019-05-01T16:55:55.869Z,27.17
2019-05-01T16:58:39.201Z,29.77
2019-05-01T17:01:30.756Z,29.03
2019-05-01T17:04:21.445Z,27.27
2019-05-01T17:07:15.297Z,29.63
2019-05-01T17:10:17.499Z,28.40
2019-05-01T17:13:12.175Z,29.10
2019-05-01T17:15:51.842Z,30.47
2019-05-01T17:21:19.060Z,31.50
2019-05-01T17:24:03.565Z,30.53
2019-05-01T17:26:48.914Z,30.30
2019-05-01T17:29:22.006Z,30.60
2019-05-01T17:32:22.067Z,32.17
2019-05-01T17:35:15.266Z,31.47
2019-05-01T17:37:59.632Z,32.23
2019-05-01T17:40:33.502Z,39.83
2019-05-01T17:43:28.712Z,33.30
2019-05-01T17:46:05.845Z,32.73
2019-05-01T17:48:37.635Z,33.63
2019-05-01T17:51:12.096Z,31.43
2019-05-01T17:53:45.836Z,31.57
2019-05-01T17:56:37.703Z,32.67
2019-05-01T17:59:17.520Z,31.27
2019-05-01T18:02:09.954Z,34.70
2019-05-01T18:04:58.755Z,34.40
2019-05-01T18:07:49.724Z,33.27
2019-05-01T18:10:25.601Z,31.03
2019-05-01T18:13:00.876Z,33.37
2019-05-01T18:15:45.509Z,33.40
2019-05-01T18:18:29.146Z,33.27
2019-05-01T18:21:32.401Z,35.43
2019-05-01T18:24:47.469Z,42.83
2019-05-01T18:28:29.940Z,32.87
2019-05-01T18:31:27.902Z,33.33
2019-05-01T18:37:57.957Z,34.10
2019-05-01T18:40:50.725Z,36.47
2019-05-01T18:44:05.357Z,35.33
2019-05-01T18:46:46.944Z,35.87
2019-05-01T18:49:38.126Z,36.57
2019-05-01T18:52:13.771Z,37.43
2019-05-01T18:55:10.671Z,35.53
2019-05-01T18:58:02.286Z,36.70
2019-05-01T19:00:49.028Z,34.37
2019-05-01T19:03:42.502Z,36.50
2019-05-01T19:06:14.855Z,35.80
2019-05-01T19:08:50.486Z,37.90
2019-05-01T19:11:34.645Z,37.30
2019-05-01T19:14:33.805Z,34.30
2019-05-01T19:17:18.512Z,36.67
2019-05-01T19:20:05.025Z,36.57
2019-05-01T19:22:43.326Z,35.83
2019-05-01T19:28:10.233Z,36.73
2019-05-01T19:30:47.527Z,37.63
2019-05-01T19:33:22.528Z,38.37
2019-05-01T19:35:57.204Z,37.37
2019-05-01T19:38:34.790Z,37.43
2019-05-01T19:41:09.605Z,37.23
2019-05-01T19:43:46.331Z,36.57
2019-05-01T19:46:18.646Z,37.83
2019-05-01T19:48:52.682Z,38.13
2019-05-01T19:51:26.055Z,37.03
2019-05-01T19:54:07.837Z,37.80
2019-05-01T19:56:48.788Z,38.80
2019-05-01T19:59:24.516Z,38.73
2019-05-01T20:02:04.756Z,38.40
2019-05-01T20:04:45.269Z,37.20
2019-05-01T20:07:21.539Z,37.67
2019-05-01T20:09:58.511Z,37.50
2019-05-01T20:12:32.555Z,39.60
2019-05-01T20:15:07.903Z,38.13
2019-05-01T20:17:59.352Z,39.07
2019-05-01T20:20:32.685Z,39.07
2019-05-01T20:23:05.473Z,40.50
2019-05-01T20:25:50.952Z,40.87
2019-05-01T20:28:31.453Z,37.77
2019-05-01T20:31:05.327Z,39.10
2019-05-01T20:33:44.484Z,39.53
2019-05-01T20:36:18.204Z,38.87
2019-05-01T20:38:51.697Z,39.77
2019-05-01T20:41:26.619Z,39.90
2019-05-01T20:44:01.226Z,40.60
2019-05-01T20:46:41.966Z,41.27
2019-05-01T20:49:17.685Z,40.27
2019-05-01T20:51:53.927Z,39.93
2019-05-01T20:54:31.076Z,39.87
2019-05-01T20:57:21.360Z,42.47
2019-05-01T20:59:57.717Z,41.00
2019-05-01T21:02:31.370Z,41.37
2019-05-01T21:05:29.643Z,42.73
2019-05-01T21:08:13.502Z,41.17
2019-05-01T21:11:13.047Z,41.23
2019-05-01T21:13:49.767Z,38.53
2019-05-01T21:16:26.143Z,40.60
2019-05-01T21:19:04.697Z,36.97
2019-05-01T21:21:41.134Z,37.53
2019-05-01T21:24:14.139Z,37.57
2019-05-01T21:26:51.098Z,36.90
2019-05-01T21:29:24.083Z,37.07
2019-05-01T21:31:56.146Z,34.90
2019-05-01T21:34:27.776Z,37.43
2019-05-01T21:37:03.671Z,35.23
2019-05-01T21:39:36.032Z,34.83
2019-05-01T21:42:11.562Z,33.67
2019-05-01T21:44:43.502Z,34.97
2019-05-01T21:47:14.643Z,33.87
2019-05-01T21:49:45.885Z,34.30
2019-05-01T21:52:25.074Z,35.37
2019-05-01T21:54:55.423Z,33.80
2019-05-01T21:57:32.575Z,35.93
2019-05-01T22:00:05.717Z,37.37
2019-05-01T22:02:41.610Z,35.37
2019-05-01T22:05:13.622Z,35.37
2019-05-01T22:07:47.691Z,36.77
2019-05-01T22:10:21.653Z,35.80
2019-05-01T22:12:51.613Z,38.00
2019-05-01T22:15:36.361Z,38.40
2019-05-01T22:18:26.774Z,41.00
2019-05-01T22:21:29.154Z,37.43
2019-05-01T22:24:24.454Z,39.03
2019-05-01T22:27:02.912Z,38.47
2019-05-01T22:29:36.461Z,37.70
2019-05-01T22:32:27.630Z,39.00
2019-05-01T22:35:24.225Z,37.43
2019-05-01T22:37:55.751Z,40.43
2019-05-01T22:41:05.488Z,39.67
2019-05-01T22:43:27.108Z,39.97
2019-05-01T22:46:01.720Z,38.23
2019-05-01T22:48:30.668Z,40.37
2019-05-01T22:51:09.343Z,39.93
2019-05-01T22:53:40.832Z,40.80
2019-05-01T22:56:12.921Z,41.70
2019-05-01T22:58:44.083Z,39.40
2019-05-01T23:01:18.111Z,40.93
2019-05-01T23:04:06.936Z,40.47
2019-05-01T23:06:41.781Z,40.07
2019-05-01T23:09:14.252Z,41.37
2019-05-01T23:11:48.366Z,38.27
2019-05-01T23:14:20.261Z,41.40
2019-05-01T23:17:03.366Z,38.90
2019-05-01T23:19:36.836Z,39.93
2019-05-01T23:22:08.396Z,39.30
2019-05-01T23:24:40.583Z,41.80
2019-05-01T23:27:11.521Z,39.03
2019-05-01T23:29:42.834Z,37.60
2019-05-01T23:32:13.714Z,38.63
2019-05-01T23:34:45.302Z,37.33
2019-05-01T23:37:18.302Z,38.00
2019-05-01T23:39:49.687Z,37.30
2019-05-01T23:42:20.937Z,39.93
2019-05-01T23:44:51.862Z,36.03
2019-05-01T23:47:24.738Z,36.80
2019-05-01T23:49:55.876Z,36.50
2019-05-01T23:52:28.142Z,38.43
2019-05-01T23:54:58.903Z,38.70
2019-05-01T23:57:29.817Z,40.20
